sensor_id;sensor_type;location;lat;lon;timestamp;P1;durP1;ratioP1;P2;durP2;ratioP2
4313;SDS011;2170;48.794;9.182;2022-12-07T00:02:02;9.87;;;8.90;;
4313;SDS011;2170;48.794;9.182;2022-12-07T00:04:31;13.40;;;9.93;;
4313;SDS011;2170;48.794;9.182;2022-12-07T00:06:58;10.70;;;9.70;;
4313;SDS011;2170;48.794;9.182;2022-12-07T00:09:25;10.23;;;9.23;;
4313;SDS011;2170;48.794;9.182;2022-12-07T00:11:52;12.43;;;8.83;;
4313;SDS011;2170;48.794;9.182;2022-12-07T00:14:19;10.27;;;9.37;;
4313;SDS011;2170;48.794;9.182;2022-12-07T00:16:48;10.20;;;9.20;;
4313;SDS011;2170;48.794;9.182;2022-12-07T00:19:15;11.60;;;9.10;;
4313;SDS011;2170;48.794;9.182;2022-12-07T00:21:43;10.97;;;9.93;;
4313;SDS011;2170;48.794;9.182;2022-12-07T00:24:10;10.27;;;9.27;;
4313;SDS011;2170;48.794;9.182;2022-12-07T00:26:39;10.73;;;9.70;;
4313;SDS011;2170;48.794;9.182;2022-12-07T00:29:07;11.87;;;10.67;;
4313;SDS011;2170;48.794;9.182;2022-12-07T00:31:35;12.57;;;10.63;;
4313;SDS011;2170;48.794;9.182;2022-12-07T00:34:03;11.83;;;10.57;;
4313;SDS011;2170;48.794;9.182;2022-12-07T00:36:31;11.10;;;10.10;;
4313;SDS011;2170;48.794;9.182;2022-12-07T00:38:59;10.50;;;9.47;;
4313;SDS011;2170;48.794;9.182;2022-12-07T00:41:27;11.40;;;10.20;;
4313;SDS011;2170;48.794;9.182;2022-12-07T00:43:55;12.10;;;10.80;;
4313;SDS011;2170;48.794;9.182;2022-12-07T00:46:22;11.60;;;10.40;;
4313;SDS011;2170;48.794;9.182;2022-12-07T00:48:50;11.33;;;10.20;;
4313;SDS011;2170;48.794;9.182;2022-12-07T00:51:18;11.63;;;10.43;;
4313;SDS011;2170;48.794;9.182;2022-12-07T00:53:46;12.40;;;11.00;;
4313;SDS011;2170;48.794;9.182;2022-12-07T00:56:15;14.63;;;11.47;;
4313;SDS011;2170;48.794;9.182;2022-12-07T00:58:42;11.33;;;10.13;;
4313;SDS011;2170;48.794;9.182;2022-12-07T01:01:10;11.60;;;10.13;;
4313;SDS011;2170;48.794;9.182;2022-12-07T01:03:37;12.80;;;11.00;;
4313;SDS011;2170;48.794;9.182;2022-12-07T01:06:05;12.83;;;11.53;;
4313;SDS011;2170;48.794;9.182;2022-12-07T01:08:32;17.13;;;11.23;;
4313;SDS011;2170;48.794;9.182;2022-12-07T01:11:00;11.83;;;10.57;;
4313;SDS011;2170;48.794;9.182;2022-12-07T01:13:29;12.40;;;11.10;;
4313;SDS011;2170;48.794;9.182;2022-12-07T01:15:57;12.87;;;10.90;;
4313;SDS011;2170;48.794;9.182;2022-12-07T01:18:25;12.17;;;10.97;;
4313;SDS011;2170;48.794;9.182;2022-12-07T01:20:59;14.27;;;11.83;;
4313;SDS011;2170;48.794;9.182;2022-12-07T01:23:26;12.37;;;10.67;;
4313;SDS011;2170;48.794;9.182;2022-12-07T01:25:54;16.07;;;12.10;;
4313;SDS011;2170;48.794;9.182;2022-12-07T01:28:21;13.30;;;11.10;;
4313;SDS011;2170;48.794;9.182;2022-12-07T01:30:55;12.90;;;11.50;;
4313;SDS011;2170;48.794;9.182;2022-12-07T01:33:22;13.57;;;11.50;;
4313;SDS011;2170;48.794;9.182;2022-12-07T01:35:49;12.57;;;10.83;;
4313;SDS011;2170;48.794;9.182;2022-12-07T01:38:16;14.50;;;11.90;;
4313;SDS011;2170;48.794;9.182;2022-12-07T01:40:43;14.37;;;11.10;;
4313;SDS011;2170;48.794;9.182;2022-12-07T01:43:13;14.00;;;12.50;;
4313;SDS011;2170;48.794;9.182;2022-12-07T01:45:41;20.00;;;13.07;;
4313;SDS011;2170;48.794;9.182;2022-12-07T01:48:10;14.20;;;12.67;;
4313;SDS011;2170;48.794;9.182;2022-12-07T01:50:37;12.70;;;11.40;;
4313;SDS011;2170;48.794;9.182;2022-12-07T01:53:06;13.23;;;11.07;;
4313;SDS011;2170;48.794;9.182;2022-12-07T01:55:34;12.87;;;11.43;;
4313;SDS011;2170;48.794;9.182;2022-12-07T01:58:02;12.50;;;11.20;;
4313;SDS011;2170;48.794;9.182;2022-12-07T02:00:30;12.70;;;11.40;;
4313;SDS011;2170;48.794;9.182;2022-12-07T02:02:59;11.90;;;10.70;;
4313;SDS011;2170;48.794;9.182;2022-12-07T02:05:30;12.40;;;11.20;;
4313;SDS011;2170;48.794;9.182;2022-12-07T02:07:58;12.97;;;11.13;;
4313;SDS011;2170;48.794;9.182;2022-12-07T02:10:26;11.87;;;10.63;;
4313;SDS011;2170;48.794;9.182;2022-12-07T02:12:54;12.33;;;11.03;;
4313;SDS011;2170;48.794;9.182;2022-12-07T02:15:23;13.30;;;11.00;;
4313;SDS011;2170;48.794;9.182;2022-12-07T02:17:55;11.97;;;10.77;;
4313;SDS011;2170;48.794;9.182;2022-12-07T02:20:23;12.13;;;10.67;;
4313;SDS011;2170;48.794;9.182;2022-12-07T02:23:04;12.40;;;10.67;;
4313;SDS011;2170;48.794;9.182;2022-12-07T02:25:45;12.33;;;10.60;;
4313;SDS011;2170;48.794;9.182;2022-12-07T02:28:19;12.27;;;10.93;;
4313;SDS011;2170;48.794;9.182;2022-12-07T02:30:53;12.13;;;10.93;;
4313;SDS011;2170;48.794;9.182;2022-12-07T02:33:23;12.93;;;9.77;;
4313;SDS011;2170;48.794;9.182;2022-12-07T02:35:53;12.00;;;10.37;;
4313;SDS011;2170;48.794;9.182;2022-12-07T02:38:23;11.60;;;10.40;;
4313;SDS011;2170;48.794;9.182;2022-12-07T02:40:53;13.87;;;11.30;;
4313;SDS011;2170;48.794;9.182;2022-12-07T02:43:22;12.53;;;10.30;;
4313;SDS011;2170;48.794;9.182;2022-12-07T02:45:50;12.60;;;10.53;;
4313;SDS011;2170;48.794;9.182;2022-12-07T02:48:19;9.93;;;8.90;;
4313;SDS011;2170;48.794;9.182;2022-12-07T02:50:48;13.13;;;11.30;;
4313;SDS011;2170;48.794;9.182;2022-12-07T02:53:31;12.93;;;10.97;;
4313;SDS011;2170;48.794;9.182;2022-12-07T02:55:59;12.43;;;11.13;;
4313;SDS011;2170;48.794;9.182;2022-12-07T02:58:30;11.67;;;10.50;;
4313;SDS011;2170;48.794;9.182;2022-12-07T03:01:02;13.40;;;10.80;;
4313;SDS011;2170;48.794;9.182;2022-12-07T03:03:33;11.90;;;10.67;;
4313;SDS011;2170;48.794;9.182;2022-12-07T03:06:05;13.57;;;10.47;;
4313;SDS011;2170;48.794;9.182;2022-12-07T03:08:37;12.53;;;11.30;;
4313;SDS011;2170;48.794;9.182;2022-12-07T03:11:06;11.47;;;10.27;;
4313;SDS011;2170;48.794;9.182;2022-12-07T03:13:37;10.93;;;9.67;;
4313;SDS011;2170;48.794;9.182;2022-12-07T03:16:07;12.10;;;10.60;;
4313;SDS011;2170;48.794;9.182;2022-12-07T03:18:37;11.10;;;9.90;;
4313;SDS011;2170;48.794;9.182;2022-12-07T03:21:06;14.10;;;10.53;;
4313;SDS011;2170;48.794;9.182;2022-12-07T03:23:35;12.73;;;10.80;;
4313;SDS011;2170;48.794;9.182;2022-12-07T03:26:04;12.00;;;10.10;;
4313;SDS011;2170;48.794;9.182;2022-12-07T03:28:34;11.73;;;9.90;;
4313;SDS011;2170;48.794;9.182;2022-12-07T03:31:04;12.37;;;9.80;;
4313;SDS011;2170;48.794;9.182;2022-12-07T03:33:36;12.10;;;10.73;;
4313;SDS011;2170;48.794;9.182;2022-12-07T03:36:08;14.13;;;11.47;;
4313;SDS011;2170;48.794;9.182;2022-12-07T03:38:38;12.40;;;10.40;;
4313;SDS011;2170;48.794;9.182;2022-12-07T03:41:08;12.93;;;10.00;;
4313;SDS011;2170;48.794;9.182;2022-12-07T03:43:36;14.10;;;10.67;;
4313;SDS011;2170;48.794;9.182;2022-12-07T03:46:06;11.77;;;10.30;;
4313;SDS011;2170;48.794;9.182;2022-12-07T03:48:35;11.07;;;9.83;;
4313;SDS011;2170;48.794;9.182;2022-12-07T03:51:06;12.70;;;11.20;;
4313;SDS011;2170;48.794;9.182;2022-12-07T03:53:39;11.33;;;9.97;;
4313;SDS011;2170;48.794;9.182;2022-12-07T03:56:07;11.97;;;10.20;;
4313;SDS011;2170;48.794;9.182;2022-12-07T03:58:35;13.50;;;9.70;;
4313;SDS011;2170;48.794;9.182;2022-12-07T04:01:02;13.20;;;10.70;;
4313;SDS011;2170;48.794;9.182;2022-12-07T04:03:29;10.80;;;9.80;;
4313;SDS011;2170;48.794;9.182;2022-12-07T04:05:56;10.60;;;9.50;;
4313;SDS011;2170;48.794;9.182;2022-12-07T04:08:24;11.00;;;9.67;;
4313;SDS011;2170;48.794;9.182;2022-12-07T04:10:52;10.97;;;9.87;;
4313;SDS011;2170;48.794;9.182;2022-12-07T04:13:19;10.77;;;9.67;;
4313;SDS011;2170;48.794;9.182;2022-12-07T04:15:46;11.67;;;9.50;;
4313;SDS011;2170;48.794;9.182;2022-12-07T04:18:13;11.23;;;9.97;;
4313;SDS011;2170;48.794;9.182;2022-12-07T04:20:40;12.20;;;10.10;;
4313;SDS011;2170;48.794;9.182;2022-12-07T04:23:07;9.80;;;8.90;;
4313;SDS011;2170;48.794;9.182;2022-12-07T04:25:34;9.97;;;8.97;;
4313;SDS011;2170;48.794;9.182;2022-12-07T04:28:03;10.23;;;9.20;;
4313;SDS011;2170;48.794;9.182;2022-12-07T04:30:30;9.63;;;8.03;;
4313;SDS011;2170;48.794;9.182;2022-12-07T04:32:57;9.00;;;8.00;;
4313;SDS011;2170;48.794;9.182;2022-12-07T04:35:24;9.20;;;7.80;;
4313;SDS011;2170;48.794;9.182;2022-12-07T04:37:51;10.20;;;9.10;;
4313;SDS011;2170;48.794;9.182;2022-12-07T04:40:18;9.00;;;8.10;;
4313;SDS011;2170;48.794;9.182;2022-12-07T04:42:45;11.50;;;8.70;;
4313;SDS011;2170;48.794;9.182;2022-12-07T04:45:13;7.97;;;7.17;;
4313;SDS011;2170;48.794;9.182;2022-12-07T04:47:40;8.53;;;7.27;;
4313;SDS011;2170;48.794;9.182;2022-12-07T04:50:09;8.23;;;7.43;;
4313;SDS011;2170;48.794;9.182;2022-12-07T04:52:36;8.33;;;7.53;;
4313;SDS011;2170;48.794;9.182;2022-12-07T04:55:03;8.03;;;7.20;;
4313;SDS011;2170;48.794;9.182;2022-12-07T04:57:30;7.57;;;6.87;;
4313;SDS011;2170;48.794;9.182;2022-12-07T04:59:57;7.10;;;6.50;;
4313;SDS011;2170;48.794;9.182;2022-12-07T05:02:26;7.70;;;7.00;;
4313;SDS011;2170;48.794;9.182;2022-12-07T05:04:53;7.27;;;6.57;;
4313;SDS011;2170;48.794;9.182;2022-12-07T05:07:20;7.23;;;6.50;;
4313;SDS011;2170;48.794;9.182;2022-12-07T05:09:47;6.90;;;6.20;;
4313;SDS011;2170;48.794;9.182;2022-12-07T05:12:14;7.10;;;6.40;;
4313;SDS011;2170;48.794;9.182;2022-12-07T05:14:41;7.90;;;6.53;;
4313;SDS011;2170;48.794;9.182;2022-12-07T05:17:08;7.03;;;6.33;;
4313;SDS011;2170;48.794;9.182;2022-12-07T05:19:37;7.53;;;6.73;;
4313;SDS011;2170;48.794;9.182;2022-12-07T05:22:04;7.30;;;6.60;;
4313;SDS011;2170;48.794;9.182;2022-12-07T05:24:31;9.00;;;7.73;;
4313;SDS011;2170;48.794;9.182;2022-12-07T05:26:59;9.10;;;8.17;;
4313;SDS011;2170;48.794;9.182;2022-12-07T05:29:26;8.30;;;7.50;;
4313;SDS011;2170;48.794;9.182;2022-12-07T05:31:53;8.80;;;7.90;;
4313;SDS011;2170;48.794;9.182;2022-12-07T05:34:20;9.00;;;7.93;;
4313;SDS011;2170;48.794;9.182;2022-12-07T05:36:48;9.07;;;7.83;;
4313;SDS011;2170;48.794;9.182;2022-12-07T05:39:16;13.00;;;7.80;;
4313;SDS011;2170;48.794;9.182;2022-12-07T05:41:43;8.87;;;7.97;;
4313;SDS011;2170;48.794;9.182;2022-12-07T05:44:28;9.80;;;8.40;;
4313;SDS011;2170;48.794;9.182;2022-12-07T05:46:55;10.97;;;9.97;;
4313;SDS011;2170;48.794;9.182;2022-12-07T05:49:22;12.80;;;11.30;;
4313;SDS011;2170;48.794;9.182;2022-12-07T05:51:50;19.70;;;16.77;;
4313;SDS011;2170;48.794;9.182;2022-12-07T05:54:17;27.73;;;24.23;;
4313;SDS011;2170;48.794;9.182;2022-12-07T05:56:44;10.83;;;9.20;;
4313;SDS011;2170;48.794;9.182;2022-12-07T05:59:11;13.10;;;11.27;;
4313;SDS011;2170;48.794;9.182;2022-12-07T06:01:53;10.00;;;8.97;;
4313;SDS011;2170;48.794;9.182;2022-12-07T06:04:20;11.10;;;9.87;;
4313;SDS011;2170;48.794;9.182;2022-12-07T06:06:47;11.07;;;9.80;;
4313;SDS011;2170;48.794;9.182;2022-12-07T06:09:16;10.03;;;9.03;;
4313;SDS011;2170;48.794;9.182;2022-12-07T06:11:43;10.67;;;9.70;;
4313;SDS011;2170;48.794;9.182;2022-12-07T06:14:28;11.47;;;9.27;;
4313;SDS011;2170;48.794;9.182;2022-12-07T06:16:55;9.37;;;8.50;;
4313;SDS011;2170;48.794;9.182;2022-12-07T06:19:22;10.43;;;9.43;;
4313;SDS011;2170;48.794;9.182;2022-12-07T06:21:49;10.47;;;9.37;;
4313;SDS011;2170;48.794;9.182;2022-12-07T06:24:18;13.03;;;11.10;;
4313;SDS011;2170;48.794;9.182;2022-12-07T06:26:45;11.57;;;10.27;;
4313;SDS011;2170;48.794;9.182;2022-12-07T06:29:12;10.87;;;9.87;;
4313;SDS011;2170;48.794;9.182;2022-12-07T06:31:39;12.70;;;10.97;;
4313;SDS011;2170;48.794;9.182;2022-12-07T06:34:08;9.67;;;8.70;;
4313;SDS011;2170;48.794;9.182;2022-12-07T06:36:35;11.53;;;8.03;;
4313;SDS011;2170;48.794;9.182;2022-12-07T06:39:02;12.87;;;10.33;;
4313;SDS011;2170;48.794;9.182;2022-12-07T06:41:31;11.90;;;9.40;;
4313;SDS011;2170;48.794;9.182;2022-12-07T06:43:58;13.13;;;9.27;;
4313;SDS011;2170;48.794;9.182;2022-12-07T06:46:25;8.33;;;7.50;;
4313;SDS011;2170;48.794;9.182;2022-12-07T06:48:52;10.30;;;8.10;;
4313;SDS011;2170;48.794;9.182;2022-12-07T06:51:19;10.60;;;9.50;;
4313;SDS011;2170;48.794;9.182;2022-12-07T06:53:46;8.50;;;7.60;;
4313;SDS011;2170;48.794;9.182;2022-12-07T06:56:13;8.10;;;7.30;;
4313;SDS011;2170;48.794;9.182;2022-12-07T06:58:42;9.13;;;7.47;;
4313;SDS011;2170;48.794;9.182;2022-12-07T07:01:09;8.60;;;7.70;;
4313;SDS011;2170;48.794;9.182;2022-12-07T07:03:37;8.57;;;7.77;;
4313;SDS011;2170;48.794;9.182;2022-12-07T07:06:04;8.33;;;7.17;;
4313;SDS011;2170;48.794;9.182;2022-12-07T07:08:32;7.07;;;6.37;;
4313;SDS011;2170;48.794;9.182;2022-12-07T07:11:00;8.33;;;7.57;;
4313;SDS011;2170;48.794;9.182;2022-12-07T07:13:27;9.20;;;7.87;;
4313;SDS011;2170;48.794;9.182;2022-12-07T07:15:55;9.90;;;8.87;;
4313;SDS011;2170;48.794;9.182;2022-12-07T07:18:23;8.57;;;7.60;;
4313;SDS011;2170;48.794;9.182;2022-12-07T07:20:50;9.23;;;7.73;;
4313;SDS011;2170;48.794;9.182;2022-12-07T07:23:17;7.97;;;6.77;;
4313;SDS011;2170;48.794;9.182;2022-12-07T07:25:44;12.47;;;7.50;;
4313;SDS011;2170;48.794;9.182;2022-12-07T07:28:11;8.90;;;6.97;;
4313;SDS011;2170;48.794;9.182;2022-12-07T07:30:38;9.73;;;7.40;;
4313;SDS011;2170;48.794;9.182;2022-12-07T07:33:07;7.13;;;6.40;;
4313;SDS011;2170;48.794;9.182;2022-12-07T07:35:34;7.80;;;6.50;;
4313;SDS011;2170;48.794;9.182;2022-12-07T07:38:01;7.23;;;6.50;;
4313;SDS011;2170;48.794;9.182;2022-12-07T07:40:28;8.30;;;7.20;;
4313;SDS011;2170;48.794;9.182;2022-12-07T07:42:56;8.43;;;7.40;;
4313;SDS011;2170;48.794;9.182;2022-12-07T07:45:23;7.17;;;6.57;;
4313;SDS011;2170;48.794;9.182;2022-12-07T07:47:51;7.57;;;6.60;;
4313;SDS011;2170;48.794;9.182;2022-12-07T07:50:20;8.40;;;6.97;;
4313;SDS011;2170;48.794;9.182;2022-12-07T07:52:47;8.47;;;6.50;;
4313;SDS011;2170;48.794;9.182;2022-12-07T07:55:14;11.50;;;7.60;;
4313;SDS011;2170;48.794;9.182;2022-12-07T07:57:41;7.87;;;7.07;;
4313;SDS011;2170;48.794;9.182;2022-12-07T08:00:09;7.27;;;6.57;;
4313;SDS011;2170;48.794;9.182;2022-12-07T08:02:37;6.23;;;5.63;;
4313;SDS011;2170;48.794;9.182;2022-12-07T08:05:04;8.37;;;6.83;;
4313;SDS011;2170;48.794;9.182;2022-12-07T08:07:32;6.73;;;6.03;;
4313;SDS011;2170;48.794;9.182;2022-12-07T08:09:59;6.77;;;6.07;;
4313;SDS011;2170;48.794;9.182;2022-12-07T08:12:26;8.87;;;6.57;;
4313;SDS011;2170;48.794;9.182;2022-12-07T08:14:53;7.93;;;7.13;;
4313;SDS011;2170;48.794;9.182;2022-12-07T08:17:21;6.93;;;5.90;;
4313;SDS011;2170;48.794;9.182;2022-12-07T08:19:48;8.40;;;6.57;;
4313;SDS011;2170;48.794;9.182;2022-12-07T08:22:15;7.40;;;5.83;;
4313;SDS011;2170;48.794;9.182;2022-12-07T08:24:43;6.70;;;6.00;;
4313;SDS011;2170;48.794;9.182;2022-12-07T08:27:10;9.07;;;6.10;;
4313;SDS011;2170;48.794;9.182;2022-12-07T08:29:37;8.37;;;5.63;;
4313;SDS011;2170;48.794;9.182;2022-12-07T08:32:04;6.07;;;5.17;;
4313;SDS011;2170;48.794;9.182;2022-12-07T08:34:31;5.93;;;5.43;;
4313;SDS011;2170;48.794;9.182;2022-12-07T08:36:58;5.93;;;5.23;;
4313;SDS011;2170;48.794;9.182;2022-12-07T08:39:26;6.40;;;5.77;;
4313;SDS011;2170;48.794;9.182;2022-12-07T08:41:54;7.50;;;5.90;;
4313;SDS011;2170;48.794;9.182;2022-12-07T08:44:21;5.97;;;5.40;;
4313;SDS011;2170;48.794;9.182;2022-12-07T08:46:49;7.97;;;6.77;;
4313;SDS011;2170;48.794;9.182;2022-12-07T08:49:18;5.77;;;4.83;;
4313;SDS011;2170;48.794;9.182;2022-12-07T08:51:46;5.90;;;5.03;;
4313;SDS011;2170;48.794;9.182;2022-12-07T08:54:14;6.40;;;5.80;;
4313;SDS011;2170;48.794;9.182;2022-12-07T08:56:41;6.63;;;5.10;;
4313;SDS011;2170;48.794;9.182;2022-12-07T08:59:10;7.30;;;5.77;;
4313;SDS011;2170;48.794;9.182;2022-12-07T09:01:39;5.73;;;5.23;;
4313;SDS011;2170;48.794;9.182;2022-12-07T09:04:06;5.97;;;5.37;;
4313;SDS011;2170;48.794;9.182;2022-12-07T09:06:36;6.80;;;6.10;;
4313;SDS011;2170;48.794;9.182;2022-12-07T09:09:03;6.07;;;5.47;;
4313;SDS011;2170;48.794;9.182;2022-12-07T09:11:31;5.60;;;5.10;;
4313;SDS011;2170;48.794;9.182;2022-12-07T09:13:58;6.03;;;5.17;;
4313;SDS011;2170;48.794;9.182;2022-12-07T09:16:27;6.87;;;5.37;;
4313;SDS011;2170;48.794;9.182;2022-12-07T09:18:54;4.70;;;4.30;;
4313;SDS011;2170;48.794;9.182;2022-12-07T09:21:21;5.87;;;5.13;;
4313;SDS011;2170;48.794;9.182;2022-12-07T09:23:48;6.23;;;4.80;;
4313;SDS011;2170;48.794;9.182;2022-12-07T09:26:15;5.43;;;4.93;;
4313;SDS011;2170;48.794;9.182;2022-12-07T09:28:42;5.30;;;4.80;;
4313;SDS011;2170;48.794;9.182;2022-12-07T09:31:09;6.07;;;5.33;;
4313;SDS011;2170;48.794;9.182;2022-12-07T09:33:37;5.83;;;4.90;;
4313;SDS011;2170;48.794;9.182;2022-12-07T09:36:06;4.80;;;4.40;;
4313;SDS011;2170;48.794;9.182;2022-12-07T09:38:34;5.43;;;4.37;;
4313;SDS011;2170;48.794;9.182;2022-12-07T09:41:04;5.13;;;4.63;;
4313;SDS011;2170;48.794;9.182;2022-12-07T09:43:32;4.20;;;3.90;;
4313;SDS011;2170;48.794;9.182;2022-12-07T09:46:00;5.00;;;4.63;;
4313;SDS011;2170;48.794;9.182;2022-12-07T09:48:29;4.47;;;4.07;;
4313;SDS011;2170;48.794;9.182;2022-12-07T09:50:59;3.77;;;3.47;;
4313;SDS011;2170;48.794;9.182;2022-12-07T09:53:27;4.93;;;4.53;;
4313;SDS011;2170;48.794;9.182;2022-12-07T09:55:55;4.20;;;3.90;;
4313;SDS011;2170;48.794;9.182;2022-12-07T09:58:24;4.30;;;3.90;;
4313;SDS011;2170;48.794;9.182;2022-12-07T10:00:52;4.17;;;3.80;;
4313;SDS011;2170;48.794;9.182;2022-12-07T10:03:20;4.93;;;4.00;;
4313;SDS011;2170;48.794;9.182;2022-12-07T10:05:48;4.67;;;3.90;;
4313;SDS011;2170;48.794;9.182;2022-12-07T10:08:17;4.20;;;3.23;;
4313;SDS011;2170;48.794;9.182;2022-12-07T10:10:45;3.17;;;2.97;;
4313;SDS011;2170;48.794;9.182;2022-12-07T10:13:13;3.60;;;3.40;;
4313;SDS011;2170;48.794;9.182;2022-12-07T10:15:42;4.33;;;4.03;;
4313;SDS011;2170;48.794;9.182;2022-12-07T10:18:17;4.13;;;3.80;;
4313;SDS011;2170;48.794;9.182;2022-12-07T10:20:44;4.10;;;3.70;;
4313;SDS011;2170;48.794;9.182;2022-12-07T10:23:14;4.57;;;3.80;;
4313;SDS011;2170;48.794;9.182;2022-12-07T10:25:43;4.63;;;4.23;;
4313;SDS011;2170;48.794;9.182;2022-12-07T10:28:14;4.80;;;4.40;;
4313;SDS011;2170;48.794;9.182;2022-12-07T10:30:55;4.57;;;4.17;;
4313;SDS011;2170;48.794;9.182;2022-12-07T10:33:31;7.27;;;4.77;;
4313;SDS011;2170;48.794;9.182;2022-12-07T10:35:58;4.80;;;4.40;;
4313;SDS011;2170;48.794;9.182;2022-12-07T10:38:27;5.70;;;4.17;;
4313;SDS011;2170;48.794;9.182;2022-12-07T10:41:05;4.97;;;4.30;;
4313;SDS011;2170;48.794;9.182;2022-12-07T10:43:32;4.70;;;4.17;;
4313;SDS011;2170;48.794;9.182;2022-12-07T10:46:06;7.00;;;4.40;;
4313;SDS011;2170;48.794;9.182;2022-12-07T10:48:37;5.13;;;4.63;;
4313;SDS011;2170;48.794;9.182;2022-12-07T10:51:08;7.23;;;4.53;;
4313;SDS011;2170;48.794;9.182;2022-12-07T10:53:48;5.87;;;5.37;;
4313;SDS011;2170;48.794;9.182;2022-12-07T10:56:22;7.77;;;4.80;;
4313;SDS011;2170;48.794;9.182;2022-12-07T10:58:55;5.40;;;4.90;;
4313;SDS011;2170;48.794;9.182;2022-12-07T11:01:25;5.30;;;4.67;;
4313;SDS011;2170;48.794;9.182;2022-12-07T11:04:03;4.53;;;4.13;;
4313;SDS011;2170;48.794;9.182;2022-12-07T11:06:34;5.90;;;5.40;;
4313;SDS011;2170;48.794;9.182;2022-12-07T11:09:08;4.37;;;3.97;;
4313;SDS011;2170;48.794;9.182;2022-12-07T11:11:45;4.10;;;3.80;;
4313;SDS011;2170;48.794;9.182;2022-12-07T11:14:15;3.93;;;3.67;;
4313;SDS011;2170;48.794;9.182;2022-12-07T11:16:50;4.40;;;4.00;;
4313;SDS011;2170;48.794;9.182;2022-12-07T11:22:12;4.67;;;4.37;;
4313;SDS011;2170;48.794;9.182;2022-12-07T11:24:42;3.03;;;2.83;;
4313;SDS011;2170;48.794;9.182;2022-12-07T11:27:14;3.20;;;3.00;;
4313;SDS011;2170;48.794;9.182;2022-12-07T11:29:49;3.77;;;3.50;;
4313;SDS011;2170;48.794;9.182;2022-12-07T11:32:21;3.17;;;2.70;;
4313;SDS011;2170;48.794;9.182;2022-12-07T11:34:51;3.50;;;3.20;;
4313;SDS011;2170;48.794;9.182;2022-12-07T11:37:23;3.03;;;2.83;;
4313;SDS011;2170;48.794;9.182;2022-12-07T11:39:52;4.83;;;3.10;;
4313;SDS011;2170;48.794;9.182;2022-12-07T11:42:23;7.23;;;3.27;;
4313;SDS011;2170;48.794;9.182;2022-12-07T11:44:52;4.07;;;3.77;;
4313;SDS011;2170;48.794;9.182;2022-12-07T11:47:22;3.93;;;3.63;;
4313;SDS011;2170;48.794;9.182;2022-12-07T11:49:53;5.43;;;4.77;;
4313;SDS011;2170;48.794;9.182;2022-12-07T11:52:22;6.17;;;5.57;;
4313;SDS011;2170;48.794;9.182;2022-12-07T11:54:52;6.10;;;5.50;;
4313;SDS011;2170;48.794;9.182;2022-12-07T11:57:22;4.83;;;4.43;;
4313;SDS011;2170;48.794;9.182;2022-12-07T11:59:53;5.60;;;5.10;;
4313;SDS011;2170;48.794;9.182;2022-12-07T12:02:24;5.87;;;5.37;;
4313;SDS011;2170;48.794;9.182;2022-12-07T12:04:54;6.27;;;5.67;;
4313;SDS011;2170;48.794;9.182;2022-12-07T12:07:22;6.40;;;5.63;;
4313;SDS011;2170;48.794;9.182;2022-12-07T12:09:50;7.37;;;6.67;;
4313;SDS011;2170;48.794;9.182;2022-12-07T12:12:36;7.00;;;6.17;;
4313;SDS011;2170;48.794;9.182;2022-12-07T12:15:13;6.37;;;5.87;;
4313;SDS011;2170;48.794;9.182;2022-12-07T12:17:50;7.57;;;6.87;;
4313;SDS011;2170;48.794;9.182;2022-12-07T12:20:21;7.47;;;6.70;;
4313;SDS011;2170;48.794;9.182;2022-12-07T12:22:50;8.03;;;6.80;;
4313;SDS011;2170;48.794;9.182;2022-12-07T12:25:19;8.13;;;7.33;;
4313;SDS011;2170;48.794;9.182;2022-12-07T12:27:48;7.57;;;6.80;;
4313;SDS011;2170;48.794;9.182;2022-12-07T12:30:29;7.00;;;6.30;;
4313;SDS011;2170;48.794;9.182;2022-12-07T12:33:01;6.93;;;6.43;;
4313;SDS011;2170;48.794;9.182;2022-12-07T12:35:29;7.50;;;6.80;;
4313;SDS011;2170;48.794;9.182;2022-12-07T12:40:43;7.13;;;6.50;;
4313;SDS011;2170;48.794;9.182;2022-12-07T12:48:39;6.90;;;6.30;;
4313;SDS011;2170;48.794;9.182;2022-12-07T12:53:52;6.17;;;5.57;;
4313;SDS011;2170;48.794;9.182;2022-12-07T12:56:23;8.37;;;6.30;;
4313;SDS011;2170;48.794;9.182;2022-12-07T13:01:41;7.03;;;6.33;;
4313;SDS011;2170;48.794;9.182;2022-12-07T13:04:18;7.00;;;6.13;;
4313;SDS011;2170;48.794;9.182;2022-12-07T13:06:48;12.30;;;6.10;;
4313;SDS011;2170;48.794;9.182;2022-12-07T13:09:17;6.97;;;5.63;;
4313;SDS011;2170;48.794;9.182;2022-12-07T13:11:47;6.50;;;5.90;;
4313;SDS011;2170;48.794;9.182;2022-12-07T13:17:00;6.40;;;5.80;;
4313;SDS011;2170;48.794;9.182;2022-12-07T13:25:41;7.63;;;5.23;;
4313;SDS011;2170;48.794;9.182;2022-12-07T13:28:14;6.00;;;5.50;;
4313;SDS011;2170;48.794;9.182;2022-12-07T13:30:43;6.50;;;5.90;;
4313;SDS011;2170;48.794;9.182;2022-12-07T13:33:11;7.10;;;6.40;;
4313;SDS011;2170;48.794;9.182;2022-12-07T13:35:39;7.53;;;6.73;;
4313;SDS011;2170;48.794;9.182;2022-12-07T13:38:15;7.40;;;6.50;;
4313;SDS011;2170;48.794;9.182;2022-12-07T13:40:46;9.43;;;6.33;;
4313;SDS011;2170;48.794;9.182;2022-12-07T13:43:25;6.67;;;6.07;;
4313;SDS011;2170;48.794;9.182;2022-12-07T13:45:55;7.07;;;6.47;;
4313;SDS011;2170;48.794;9.182;2022-12-07T13:48:24;7.30;;;6.60;;
4313;SDS011;2170;48.794;9.182;2022-12-07T13:50:54;6.43;;;5.87;;
4313;SDS011;2170;48.794;9.182;2022-12-07T13:53:22;7.03;;;6.40;;
4313;SDS011;2170;48.794;9.182;2022-12-07T13:55:50;7.97;;;7.17;;
4313;SDS011;2170;48.794;9.182;2022-12-07T13:58:17;7.10;;;6.40;;
4313;SDS011;2170;48.794;9.182;2022-12-07T14:00:45;7.97;;;7.17;;
4313;SDS011;2170;48.794;9.182;2022-12-07T14:03:23;7.47;;;6.80;;
4313;SDS011;2170;48.794;9.182;2022-12-07T14:06:03;7.53;;;6.83;;
4313;SDS011;2170;48.794;9.182;2022-12-07T14:08:30;7.83;;;7.13;;
4313;SDS011;2170;48.794;9.182;2022-12-07T14:10:58;7.23;;;6.53;;
4313;SDS011;2170;48.794;9.182;2022-12-07T14:13:27;8.83;;;7.83;;
4313;SDS011;2170;48.794;9.182;2022-12-07T14:15:56;7.77;;;6.73;;
4313;SDS011;2170;48.794;9.182;2022-12-07T14:18:25;6.80;;;6.10;;
4313;SDS011;2170;48.794;9.182;2022-12-07T14:21:02;9.67;;;6.20;;
4313;SDS011;2170;48.794;9.182;2022-12-07T14:23:29;7.87;;;7.07;;
4313;SDS011;2170;48.794;9.182;2022-12-07T14:26:06;8.77;;;7.10;;
4313;SDS011;2170;48.794;9.182;2022-12-07T14:28:34;7.87;;;7.07;;
4313;SDS011;2170;48.794;9.182;2022-12-07T14:31:02;7.80;;;7.10;;
4313;SDS011;2170;48.794;9.182;2022-12-07T14:33:29;8.73;;;6.67;;
4313;SDS011;2170;48.794;9.182;2022-12-07T14:35:56;8.63;;;7.80;;
4313;SDS011;2170;48.794;9.182;2022-12-07T14:38:24;7.37;;;6.63;;
4313;SDS011;2170;48.794;9.182;2022-12-07T14:40:51;9.93;;;7.73;;
4313;SDS011;2170;48.794;9.182;2022-12-07T14:43:20;8.60;;;7.83;;
4313;SDS011;2170;48.794;9.182;2022-12-07T14:45:47;8.53;;;7.63;;
4313;SDS011;2170;48.794;9.182;2022-12-07T14:48:15;8.70;;;7.33;;
4313;SDS011;2170;48.794;9.182;2022-12-07T14:50:43;8.53;;;7.73;;
4313;SDS011;2170;48.794;9.182;2022-12-07T14:53:12;8.40;;;7.60;;
4313;SDS011;2170;48.794;9.182;2022-12-07T14:55:40;9.30;;;8.40;;
4313;SDS011;2170;48.794;9.182;2022-12-07T14:58:08;10.10;;;8.20;;
4313;SDS011;2170;48.794;9.182;2022-12-07T15:00:40;9.20;;;7.40;;
4313;SDS011;2170;48.794;9.182;2022-12-07T15:03:07;8.47;;;7.53;;
4313;SDS011;2170;48.794;9.182;2022-12-07T15:05:34;8.73;;;7.90;;
4313;SDS011;2170;48.794;9.182;2022-12-07T15:08:01;9.07;;;8.07;;
4313;SDS011;2170;48.794;9.182;2022-12-07T15:10:30;9.40;;;8.07;;
4313;SDS011;2170;48.794;9.182;2022-12-07T15:12:57;9.90;;;7.77;;
4313;SDS011;2170;48.794;9.182;2022-12-07T15:15:46;9.53;;;7.47;;
4313;SDS011;2170;48.794;9.182;2022-12-07T15:18:14;7.83;;;7.07;;
4313;SDS011;2170;48.794;9.182;2022-12-07T15:20:41;7.73;;;7.00;;
4313;SDS011;2170;48.794;9.182;2022-12-07T15:23:08;12.00;;;7.77;;
4313;SDS011;2170;48.794;9.182;2022-12-07T15:25:36;6.97;;;6.00;;
4313;SDS011;2170;48.794;9.182;2022-12-07T15:28:03;9.23;;;6.53;;
4313;SDS011;2170;48.794;9.182;2022-12-07T15:30:30;6.87;;;5.80;;
4313;SDS011;2170;48.794;9.182;2022-12-07T15:32:58;7.33;;;6.63;;
4313;SDS011;2170;48.794;9.182;2022-12-07T15:35:25;8.30;;;6.30;;
4313;SDS011;2170;48.794;9.182;2022-12-07T15:37:53;7.37;;;6.60;;
4313;SDS011;2170;48.794;9.182;2022-12-07T15:40:20;7.60;;;6.87;;
4313;SDS011;2170;48.794;9.182;2022-12-07T15:42:47;8.80;;;7.40;;
4313;SDS011;2170;48.794;9.182;2022-12-07T15:45:14;8.37;;;6.90;;